createdAt,value
2022-10-15T00:01:54.323Z,94.80
2022-10-15T00:04:24.517Z,94.90
2022-10-15T00:06:53.376Z,95.10
2022-10-15T00:09:22.221Z,95.20
2022-10-15T00:11:51.221Z,95.30
2022-10-15T00:14:20.088Z,95.50
2022-10-15T00:16:48.996Z,95.60
2022-10-15T00:19:17.899Z,95.70
2022-10-15T00:21:48.325Z,95.90
2022-10-15T00:24:17.202Z,95.90
2022-10-15T00:26:45.939Z,96.10
2022-10-15T00:29:14.756Z,96.20
2022-10-15T00:31:43.810Z,96.30
2022-10-15T00:34:14.395Z,96.40
2022-10-15T00:36:43.106Z,96.50
2022-10-15T00:39:13.907Z,96.70
2022-10-15T00:41:45.435Z,96.80
2022-10-15T00:44:49.492Z,97.00
2022-10-15T00:47:21.833Z,97.10
2022-10-15T00:49:56.539Z,97.20
2022-10-15T00:52:31.340Z,97.40
2022-10-15T00:55:08.206Z,97.60
2022-10-15T00:57:56.935Z,97.80
2022-10-15T01:00:26.000Z,97.90
2022-10-15T01:02:54.900Z,98.10
2022-10-15T01:05:24.851Z,98.20
2022-10-15T01:07:53.857Z,98.30
2022-10-15T01:10:29.230Z,98.50
2022-10-15T01:13:05.925Z,98.60
2022-10-15T01:15:59.793Z,98.80
2022-10-15T01:18:33.949Z,98.90
2022-10-15T01:21:09.852Z,99.00
2022-10-15T01:24:14.223Z,99.10
2022-10-15T01:27:10.999Z,99.30
2022-10-15T01:30:24.822Z,99.40
2022-10-15T01:33:23.471Z,99.50
2022-10-15T01:35:55.768Z,99.60
2022-10-15T01:38:34.559Z,99.70
2022-10-15T01:41:10.727Z,99.90
2022-10-15T01:43:46.080Z,99.90
2022-10-15T01:46:33.547Z,99.90
2022-10-15T01:49:08.488Z,99.90
2022-10-15T01:51:40.285Z,99.90
2022-10-15T01:54:13.162Z,99.90
2022-10-15T01:56:49.848Z,99.90
2022-10-15T01:59:24.080Z,99.90
2022-10-15T02:01:55.013Z,99.90
2022-10-15T02:04:29.733Z,99.90
2022-10-15T02:07:04.971Z,99.90
2022-10-15T02:09:46.697Z,99.90
2022-10-15T02:12:39.280Z,99.90
2022-10-15T02:15:15.450Z,99.90
2022-10-15T02:17:51.326Z,99.90
2022-10-15T02:20:24.364Z,99.90
2022-10-15T02:23:01.335Z,99.90
2022-10-15T02:25:30.568Z,99.90
2022-10-15T02:28:01.961Z,99.90
2022-10-15T02:30:31.595Z,99.90
2022-10-15T02:33:01.297Z,99.90
2022-10-15T02:35:31.817Z,99.90
2022-10-15T02:38:06.891Z,99.90
2022-10-15T02:40:55.400Z,99.90
2022-10-15T02:43:24.685Z,99.90
2022-10-15T02:45:53.625Z,99.90
2022-10-15T02:48:23.373Z,99.90
2022-10-15T02:50:53.658Z,99.90
2022-10-15T02:53:22.503Z,99.90
2022-10-15T02:55:51.303Z,99.90
2022-10-15T02:58:20.226Z,99.90
2022-10-15T03:00:49.121Z,99.90
2022-10-15T03:03:17.865Z,99.90
2022-10-15T03:05:47.359Z,99.90
2022-10-15T03:08:18.007Z,99.90
2022-10-15T03:10:48.040Z,99.90
2022-10-15T03:13:17.047Z,99.90
2022-10-15T03:15:50.724Z,99.90
2022-10-15T03:18:19.715Z,99.90
2022-10-15T03:20:55.828Z,99.90
2022-10-15T03:23:26.573Z,99.90
2022-10-15T03:26:06.150Z,99.90
2022-10-15T03:28:35.862Z,99.90
2022-10-15T03:31:04.987Z,99.90
2022-10-15T03:33:34.574Z,99.90
2022-10-15T03:36:04.252Z,99.90
2022-10-15T03:38:34.826Z,99.90
2022-10-15T03:41:06.033Z,99.90
2022-10-15T03:43:42.631Z,99.90
2022-10-15T03:46:12.491Z,99.90
2022-10-15T03:48:44.964Z,99.90
2022-10-15T03:51:18.526Z,99.90
2022-10-15T03:53:56.466Z,99.90
2022-10-15T03:56:25.524Z,99.90
2022-10-15T03:58:58.669Z,99.90
2022-10-15T04:01:27.666Z,99.90
2022-10-15T04:03:57.726Z,99.90
2022-10-15T04:06:28.076Z,99.90
2022-10-15T04:08:58.269Z,99.90
2022-10-15T04:11:46.053Z,99.90
2022-10-15T04:14:15.927Z,99.90
2022-10-15T04:16:45.559Z,99.90
2022-10-15T04:19:19.882Z,99.90
2022-10-15T04:21:59.223Z,99.90
2022-10-15T04:24:45.547Z,99.90
2022-10-15T04:27:33.059Z,99.90
2022-10-15T04:30:09.740Z,99.90
2022-10-15T04:32:42.468Z,99.90
2022-10-15T04:35:12.519Z,99.90
2022-10-15T04:38:00.130Z,99.90
2022-10-15T04:40:36.187Z,99.90
2022-10-15T04:43:23.429Z,99.90
2022-10-15T04:45:58.915Z,99.90
2022-10-15T04:48:30.818Z,99.90
2022-10-15T04:51:05.546Z,99.90
2022-10-15T04:53:45.461Z,99.90
2022-10-15T04:56:18.158Z,99.90
2022-10-15T04:58:49.320Z,99.90
2022-10-15T05:01:21.286Z,99.90
2022-10-15T05:04:16.478Z,99.90
2022-10-15T05:06:45.277Z,99.90
2022-10-15T05:09:21.211Z,99.90
2022-10-15T05:11:55.599Z,99.90
2022-10-15T05:14:24.614Z,99.90
2022-10-15T05:17:06.681Z,99.90
2022-10-15T05:19:41.164Z,99.90
2022-10-15T05:22:17.254Z,99.90
2022-10-15T05:24:52.992Z,99.90
2022-10-15T05:27:37.345Z,99.90
2022-10-15T05:30:08.428Z,99.90
2022-10-15T05:32:43.253Z,99.90
2022-10-15T05:35:14.327Z,99.90
2022-10-15T05:37:55.136Z,99.90
2022-10-15T05:40:25.414Z,99.90
2022-10-15T05:43:15.942Z,99.90
2022-10-15T05:45:45.004Z,99.90
2022-10-15T05:48:15.645Z,99.90
2022-10-15T05:50:44.872Z,99.90
2022-10-15T05:53:20.945Z,99.90
2022-10-15T05:55:54.806Z,99.90
2022-10-15T05:58:33.376Z,99.90
2022-10-15T06:01:07.109Z,99.90
2022-10-15T06:03:40.395Z,99.90
2022-10-15T06:06:16.055Z,99.90
2022-10-15T06:08:45.149Z,99.90
2022-10-15T06:11:13.955Z,99.90
2022-10-15T06:13:45.461Z,99.90
2022-10-15T06:16:19.518Z,99.90
2022-10-15T06:18:52.725Z,99.90
2022-10-15T06:21:21.611Z,99.90
2022-10-15T06:23:50.390Z,99.90
2022-10-15T06:26:19.341Z,99.90
2022-10-15T06:28:51.425Z,99.90
2022-10-15T06:31:20.800Z,99.90
2022-10-15T06:33:49.754Z,99.90
2022-10-15T06:36:18.498Z,99.90
2022-10-15T06:38:49.069Z,99.90
2022-10-15T06:41:17.952Z,99.90
2022-10-15T06:43:47.310Z,99.90
2022-10-15T06:46:17.879Z,99.90
2022-10-15T06:48:46.779Z,99.90
2022-10-15T06:51:15.602Z,99.90
2022-10-15T06:53:51.602Z,99.90
2022-10-15T06:56:38.986Z,99.90
2022-10-15T06:59:07.896Z,99.90
2022-10-15T07:01:41.359Z,99.90
2022-10-15T07:04:11.527Z,99.90
2022-10-15T07:06:41.759Z,99.90
2022-10-15T07:09:10.789Z,99.90
2022-10-15T07:11:39.578Z,99.90
2022-10-15T07:14:08.470Z,99.90
2022-10-15T07:16:39.773Z,99.90
2022-10-15T07:19:08.653Z,99.90
2022-10-15T07:21:37.526Z,99.90
2022-10-15T07:24:06.983Z,99.90
2022-10-15T07:26:36.148Z,99.90
2022-10-15T07:29:05.378Z,99.90
2022-10-15T07:31:34.524Z,99.90
2022-10-15T07:34:08.251Z,99.90
2022-10-15T07:36:37.165Z,99.90
2022-10-15T07:39:05.968Z,99.90
2022-10-15T07:41:34.804Z,99.90
2022-10-15T07:44:22.395Z,99.90
2022-10-15T07:46:51.176Z,99.90
2022-10-15T07:49:21.429Z,99.90
2022-10-15T07:51:50.381Z,99.90
2022-10-15T07:54:19.077Z,99.90
2022-10-15T07:56:48.025Z,99.90
2022-10-15T07:59:16.863Z,99.90
2022-10-15T08:01:48.431Z,99.90
2022-10-15T08:04:21.824Z,99.90
2022-10-15T08:06:51.378Z,99.90
2022-10-15T08:09:20.506Z,99.90
2022-10-15T08:11:49.390Z,99.90
2022-10-15T08:14:19.550Z,99.90
2022-10-15T08:16:48.479Z,99.90
2022-10-15T08:19:18.398Z,99.90
2022-10-15T08:21:48.772Z,99.90
2022-10-15T08:24:17.695Z,99.90
2022-10-15T08:26:46.546Z,99.90
2022-10-15T08:29:15.615Z,99.90
2022-10-15T08:32:02.850Z,99.90
2022-10-15T08:34:32.677Z,99.90
2022-10-15T08:37:04.481Z,99.90
2022-10-15T08:39:33.587Z,99.90
2022-10-15T08:42:04.425Z,99.90
2022-10-15T08:44:43.845Z,99.90
2022-10-15T08:47:24.856Z,99.90
2022-10-15T08:49:56.629Z,99.90
2022-10-15T08:52:41.240Z,99.90
2022-10-15T08:55:17.388Z,99.90
2022-10-15T08:57:50.795Z,99.90
2022-10-15T09:00:23.385Z,99.90
2022-10-15T09:03:02.728Z,99.90
2022-10-15T09:05:40.713Z,99.90
2022-10-15T09:08:21.583Z,99.90
2022-10-15T09:10:54.039Z,99.90
2022-10-15T09:13:27.909Z,99.90
2022-10-15T09:16:01.605Z,99.90
2022-10-15T09:18:33.719Z,99.90
2022-10-15T09:21:03.863Z,99.90
2022-10-15T09:23:36.182Z,99.90
2022-10-15T09:26:11.162Z,99.90
2022-10-15T09:28:46.474Z,99.90
2022-10-15T09:31:23.320Z,99.90
2022-10-15T09:33:56.225Z,99.90
2022-10-15T09:36:49.750Z,99.90
2022-10-15T09:39:45.078Z,99.90
2022-10-15T09:42:27.377Z,99.90
2022-10-15T09:44:59.057Z,99.90
2022-10-15T09:47:30.469Z,99.90
2022-10-15T09:50:03.012Z,99.90
2022-10-15T09:52:58.106Z,99.90
2022-10-15T09:55:38.792Z,99.90
2022-10-15T09:58:30.534Z,99.90
2022-10-15T10:01:01.754Z,99.90
2022-10-15T10:03:37.548Z,99.90
2022-10-15T10:06:09.755Z,99.90
2022-10-15T10:08:41.835Z,99.90
2022-10-15T10:11:14.079Z,99.90
2022-10-15T10:13:52.092Z,99.90
2022-10-15T10:16:23.687Z,99.90
2022-10-15T10:19:09.180Z,99.90
2022-10-15T10:21:40.366Z,99.90
2022-10-15T10:24:28.711Z,99.90
2022-10-15T10:26:59.979Z,99.90
2022-10-15T10:29:34.170Z,99.90
2022-10-15T10:32:13.666Z,99.90
2022-10-15T10:34:50.063Z,99.90
2022-10-15T10:37:21.762Z,99.90
2022-10-15T10:39:55.940Z,99.90
2022-10-15T10:42:38.417Z,99.90
2022-10-15T10:45:22.116Z,99.90
2022-10-15T10:47:51.133Z,99.90
2022-10-15T10:50:30.884Z,99.90
2022-10-15T10:53:00.291Z,99.90
2022-10-15T10:55:38.734Z,99.90
2022-10-15T10:58:20.139Z,99.90
2022-10-15T11:00:53.760Z,99.90
2022-10-15T11:03:31.888Z,99.90
2022-10-15T11:06:10.432Z,99.90
2022-10-15T11:09:10.118Z,99.90
2022-10-15T11:11:44.365Z,99.90
2022-10-15T11:14:25.308Z,99.90
2022-10-15T11:17:01.641Z,99.90
2022-10-15T11:20:20.725Z,99.90
2022-10-15T11:23:11.208Z,99.90
2022-10-15T11:25:47.782Z,99.90
2022-10-15T11:28:28.971Z,99.90
2022-10-15T11:31:11.373Z,99.90
2022-10-15T11:33:57.789Z,99.90
2022-10-15T11:36:40.754Z,99.90
2022-10-15T11:39:33.585Z,99.90
2022-10-15T11:42:14.480Z,99.90
2022-10-15T11:45:01.462Z,99.90
2022-10-15T11:47:41.905Z,99.90
2022-10-15T11:50:23.420Z,99.90
2022-10-15T11:53:07.518Z,99.90
2022-10-15T11:55:43.857Z,99.90
2022-10-15T11:58:18.355Z,99.90
2022-10-15T12:00:51.737Z,99.90
2022-10-15T12:03:26.471Z,99.90
2022-10-15T12:05:58.414Z,99.90
2022-10-15T12:08:32.130Z,99.90
2022-10-15T12:11:15.089Z,99.90
2022-10-15T12:13:48.674Z,99.90
2022-10-15T12:16:27.593Z,99.90
2022-10-15T12:19:09.275Z,99.90
2022-10-15T12:21:41.318Z,99.90
2022-10-15T12:24:54.508Z,99.90
2022-10-15T12:27:30.478Z,99.90
2022-10-15T12:30:24.012Z,99.90
2022-10-15T12:32:55.831Z,99.90
2022-10-15T12:35:36.493Z,99.90
2022-10-15T12:38:26.547Z,99.90
2022-10-15T12:41:01.588Z,99.90
2022-10-15T12:43:32.789Z,99.90
2022-10-15T12:46:04.719Z,99.90
2022-10-15T12:48:37.907Z,99.90
2022-10-15T12:51:35.542Z,99.90
2022-10-15T12:54:04.541Z,99.90
2022-10-15T12:56:42.466Z,99.90
2022-10-15T12:59:32.633Z,99.90
2022-10-15T13:02:03.957Z,99.90
2022-10-15T13:04:41.073Z,99.90
2022-10-15T13:07:16.427Z,99.90
2022-10-15T13:09:45.442Z,99.90
2022-10-15T13:12:24.981Z,99.90
2022-10-15T13:14:59.460Z,99.90
2022-10-15T13:17:28.625Z,99.90
2022-10-15T13:20:00.712Z,99.90
2022-10-15T13:22:32.563Z,99.90
2022-10-15T13:25:02.020Z,99.90
2022-10-15T13:27:32.450Z,99.90
2022-10-15T13:30:02.555Z,99.90
2022-10-15T13:32:35.217Z,99.90
2022-10-15T13:35:11.726Z,99.90
2022-10-15T13:37:44.365Z,99.90
2022-10-15T13:40:21.867Z,99.90
2022-10-15T13:43:18.771Z,99.90
2022-10-15T13:45:52.508Z,99.90
2022-10-15T13:48:23.623Z,99.90
2022-10-15T13:50:54.763Z,99.90
2022-10-15T13:53:30.388Z,99.90
2022-10-15T13:56:01.508Z,99.90
2022-10-15T13:58:30.737Z,99.90
2022-10-15T14:01:01.154Z,99.90
2022-10-15T14:03:31.072Z,99.90
2022-10-15T14:06:00.412Z,99.90
2022-10-15T14:08:34.896Z,99.90
2022-10-15T14:11:03.561Z,99.90
2022-10-15T14:13:32.191Z,99.90
2022-10-15T14:18:34.221Z,99.90
2022-10-15T14:21:03.229Z,99.90
2022-10-15T14:23:33.052Z,99.90
2022-10-15T14:26:02.300Z,99.90
2022-10-15T14:28:31.823Z,99.90
2022-10-15T14:31:00.268Z,99.90
2022-10-15T14:33:40.783Z,99.90
2022-10-15T14:36:15.752Z,99.90
2022-10-15T14:38:45.856Z,99.90
2022-10-15T14:41:23.623Z,99.90
2022-10-15T14:44:01.556Z,99.90
2022-10-15T14:47:06.000Z,99.90
2022-10-15T14:49:35.797Z,99.90
2022-10-15T14:52:11.293Z,99.90
2022-10-15T14:54:45.413Z,99.90
2022-10-15T14:57:17.788Z,99.90
2022-10-15T14:59:46.615Z,99.90
2022-10-15T15:02:16.778Z,99.90
2022-10-15T15:04:46.432Z,99.90
2022-10-15T15:07:16.526Z,99.90
2022-10-15T15:09:48.211Z,99.90
2022-10-15T15:12:24.233Z,99.90
2022-10-15T15:14:55.528Z,99.90
2022-10-15T15:17:24.769Z,99.90
2022-10-15T15:19:57.038Z,99.90
2022-10-15T15:22:28.412Z,99.90
2022-10-15T15:24:59.609Z,99.90
2022-10-15T15:27:46.879Z,99.90
2022-10-15T15:30:16.857Z,99.90
2022-10-15T15:32:48.156Z,99.90
2022-10-15T15:35:24.034Z,99.90
2022-10-15T15:37:52.739Z,99.90
2022-10-15T15:40:22.842Z,99.90
2022-10-15T15:42:51.797Z,99.90
2022-10-15T15:45:21.064Z,99.90
2022-10-15T15:47:49.682Z,99.90
2022-10-15T15:50:19.400Z,99.90
2022-10-15T15:52:48.422Z,99.90
2022-10-15T15:55:17.225Z,99.90
2022-10-15T15:57:49.342Z,99.90
2022-10-15T16:00:18.417Z,99.90
2022-10-15T16:02:47.017Z,99.90
2022-10-15T16:05:20.363Z,99.90
2022-10-15T16:07:48.938Z,99.90
2022-10-15T16:10:17.864Z,99.90
2022-10-15T16:12:46.643Z,99.90
2022-10-15T16:15:16.799Z,99.90
2022-10-15T16:17:45.447Z,99.90
2022-10-15T16:20:14.144Z,99.90
2022-10-15T16:22:43.115Z,99.90
2022-10-15T16:25:12.212Z,99.90
2022-10-15T16:27:40.645Z,99.90
2022-10-15T16:30:09.428Z,99.90
2022-10-15T16:32:39.238Z,99.90
2022-10-15T16:35:08.188Z,99.90
2022-10-15T16:37:36.834Z,99.90
2022-10-15T16:40:05.826Z,99.90
2022-10-15T16:42:34.454Z,99.90
2022-10-15T16:45:03.189Z,99.90
2022-10-15T16:47:31.837Z,99.90
2022-10-15T16:50:02.809Z,99.90
2022-10-15T16:52:31.774Z,99.90
2022-10-15T16:55:00.234Z,99.90
2022-10-15T16:57:29.724Z,99.90
2022-10-15T16:59:58.170Z,99.90
2022-10-15T17:02:26.870Z,99.90
2022-10-15T17:04:55.488Z,99.90
2022-10-15T17:07:25.867Z,99.90
2022-10-15T17:09:55.087Z,99.90
2022-10-15T17:12:23.860Z,99.90
2022-10-15T17:14:52.797Z,99.90
2022-10-15T17:17:21.329Z,99.90
2022-10-15T17:19:49.894Z,99.90
2022-10-15T17:22:18.315Z,99.90
2022-10-15T17:24:50.097Z,99.90
2022-10-15T17:27:18.780Z,99.90
2022-10-15T17:29:47.223Z,99.90
2022-10-15T17:32:15.690Z,99.90
2022-10-15T17:34:44.353Z,99.90
2022-10-15T17:37:19.238Z,99.90
2022-10-15T17:39:49.199Z,99.90
2022-10-15T17:42:18.919Z,99.90
2022-10-15T17:44:47.691Z,99.90
2022-10-15T17:47:16.351Z,99.90
2022-10-15T17:49:45.165Z,99.90
2022-10-15T17:52:14.167Z,99.90
2022-10-15T17:54:42.651Z,99.90
2022-10-15T17:57:12.583Z,99.90
2022-10-15T17:59:41.087Z,99.90
2022-10-15T18:02:10.530Z,99.90
2022-10-15T18:04:40.992Z,99.90
2022-10-15T18:07:09.614Z,99.90
2022-10-15T18:09:38.219Z,99.90
2022-10-15T18:12:07.768Z,99.90
2022-10-15T18:14:37.630Z,99.90
2022-10-15T18:17:06.529Z,99.90
2022-10-15T18:19:34.925Z,99.90
2022-10-15T18:22:03.377Z,99.90
2022-10-15T18:24:33.274Z,99.90
2022-10-15T18:27:06.003Z,99.90
2022-10-15T18:29:36.187Z,99.90
2022-10-15T18:32:07.710Z,99.90
2022-10-15T18:34:36.620Z,99.90
2022-10-15T18:37:05.066Z,99.90
2022-10-15T18:39:33.593Z,99.90
2022-10-15T18:42:03.723Z,99.90
2022-10-15T18:44:33.512Z,99.90
2022-10-15T18:47:01.989Z,99.90
2022-10-15T18:49:32.402Z,99.90
2022-10-15T18:52:10.689Z,99.90
2022-10-15T18:54:50.270Z,99.90
2022-10-15T18:57:19.843Z,99.90
2022-10-15T18:59:48.339Z,99.90
2022-10-15T19:02:16.775Z,99.90
2022-10-15T19:04:46.757Z,99.90
2022-10-15T19:07:15.883Z,99.90
2022-10-15T19:09:44.529Z,99.90
2022-10-15T19:12:13.192Z,99.90
2022-10-15T19:14:41.733Z,99.90
2022-10-15T19:17:10.164Z,99.90
2022-10-15T19:19:38.866Z,99.90
2022-10-15T19:22:08.804Z,99.90
2022-10-15T19:24:37.536Z,99.90
2022-10-15T19:29:43.491Z,99.90
2022-10-15T19:32:11.993Z,99.90
2022-10-15T19:34:40.493Z,99.90
2022-10-15T19:37:10.731Z,99.90
2022-10-15T19:39:49.217Z,99.90
2022-10-15T19:42:17.731Z,99.90
2022-10-15T19:44:46.204Z,99.90
2022-10-15T19:47:20.998Z,99.90
2022-10-15T19:49:52.682Z,99.90
2022-10-15T19:52:22.886Z,99.90
2022-10-15T19:54:53.249Z,99.90
2022-10-15T19:57:22.144Z,99.90
2022-10-15T19:59:54.206Z,99.90
2022-10-15T20:02:22.788Z,99.90
2022-10-15T20:04:51.355Z,99.90
2022-10-15T20:07:19.719Z,99.90
2022-10-15T20:09:54.747Z,99.90
2022-10-15T20:12:25.024Z,99.90
2022-10-15T20:14:53.646Z,99.90
2022-10-15T20:17:22.406Z,99.90
2022-10-15T20:19:51.021Z,99.90
2022-10-15T20:22:19.644Z,99.90
2022-10-15T20:24:48.197Z,99.90
2022-10-15T20:27:18.312Z,99.90
2022-10-15T20:29:46.761Z,99.90
2022-10-15T20:32:35.992Z,99.90
2022-10-15T20:35:05.016Z,99.90
2022-10-15T20:37:33.586Z,99.90
2022-10-15T20:40:02.601Z,99.90
2022-10-15T20:42:34.293Z,99.90
2022-10-15T20:45:03.983Z,99.90
2022-10-15T20:47:34.073Z,99.90
2022-10-15T20:50:03.056Z,99.90
2022-10-15T20:52:33.037Z,99.90
2022-10-15T20:55:01.696Z,99.90
2022-10-15T20:57:30.530Z,99.90
2022-10-15T21:00:00.395Z,99.90
2022-10-15T21:02:29.162Z,99.90
2022-10-15T21:04:57.578Z,99.90
2022-10-15T21:07:25.936Z,99.90
2022-10-15T21:09:54.708Z,99.90
2022-10-15T21:12:26.184Z,99.90
2022-10-15T21:14:56.801Z,99.90
2022-10-15T21:17:27.018Z,99.90
2022-10-15T21:19:55.897Z,99.90
2022-10-15T21:22:24.320Z,99.90
2022-10-15T21:24:55.612Z,99.90
2022-10-15T21:27:42.997Z,99.90
2022-10-15T21:30:12.033Z,99.90
2022-10-15T21:32:42.001Z,99.90
2022-10-15T21:35:10.855Z,99.90
2022-10-15T21:37:40.000Z,99.90
2022-10-15T21:40:09.245Z,99.90
2022-10-15T21:42:37.809Z,99.90
2022-10-15T21:45:07.012Z,99.90
2022-10-15T21:47:35.608Z,99.90
2022-10-15T21:50:05.810Z,99.90
2022-10-15T21:52:34.478Z,99.90
2022-10-15T21:55:02.877Z,99.90
2022-10-15T21:57:31.409Z,99.90
2022-10-15T22:00:00.116Z,99.90
2022-10-15T22:02:28.591Z,99.90
2022-10-15T22:04:57.129Z,99.90
2022-10-15T22:07:27.130Z,99.90
2022-10-15T22:09:56.193Z,99.90
2022-10-15T22:12:24.941Z,99.90
2022-10-15T22:14:53.533Z,99.90
2022-10-15T22:17:22.055Z,99.90
2022-10-15T22:19:51.399Z,99.90
2022-10-15T22:22:19.989Z,99.90
2022-10-15T22:24:49.853Z,99.90
2022-10-15T22:27:18.462Z,99.90
2022-10-15T22:29:46.907Z,99.90
2022-10-15T22:32:15.300Z,99.80
2022-10-15T22:34:44.048Z,99.80
2022-10-15T22:37:12.590Z,99.70
2022-10-15T22:39:41.204Z,99.70
2022-10-15T22:42:11.522Z,99.60
2022-10-15T22:44:40.156Z,99.60
2022-10-15T22:47:09.749Z,99.50
2022-10-15T22:49:38.267Z,99.40
2022-10-15T22:52:06.790Z,99.50
2022-10-15T22:54:35.307Z,99.50
2022-10-15T22:57:03.849Z,99.50
2022-10-15T22:59:33.785Z,99.50
2022-10-15T23:02:04.734Z,99.50
2022-10-15T23:04:51.525Z,99.50
2022-10-15T23:07:20.007Z,99.40
2022-10-15T23:09:49.560Z,99.40
2022-10-15T23:12:18.102Z,99.30
2022-10-15T23:14:48.799Z,99.40
2022-10-15T23:17:17.271Z,99.30
2022-10-15T23:19:45.913Z,99.40
2022-10-15T23:22:14.316Z,99.40
2022-10-15T23:24:42.774Z,99.40
2022-10-15T23:27:11.498Z,99.30
2022-10-15T23:29:39.935Z,99.30
2022-10-15T23:32:10.729Z,99.40
2022-10-15T23:34:39.625Z,99.50
2022-10-15T23:37:07.968Z,99.70
2022-10-15T23:39:36.718Z,99.70
2022-10-15T23:42:05.404Z,99.70
2022-10-15T23:44:34.365Z,99.80
2022-10-15T23:47:02.789Z,99.90
2022-10-15T23:49:32.878Z,99.90
2022-10-15T23:52:03.310Z,99.90
2022-10-15T23:54:31.832Z,99.90
2022-10-15T23:57:01.617Z,99.90
2022-10-15T23:59:30.005Z,99.90
